Time;durP1;ratioP1;P1;durP2;ratioP2;P2;SDS_P1;SDS_P2;PMS_P1;PMS_P2;Temp;Humidity;BMP_temperature;BMP_pressure;BME280_temperature;BME280_humidity;BME280_pressure;Samples;Min_cycle;Max_cycle;Signal;HPM_P1;HPM_P2
2022/06/16 00:00:14;;;;;;;7.27;6.77;;;18.30;18.10;;;;;;4989484;28;20416;-69
2022/06/16 00:02:41;;;;;;;7.93;7.43;;;18.20;18.00;;;;;;4989800;28;20962;-70
2022/06/16 00:05:09;;;;;;;8.17;7.67;;;18.20;18.10;;;;;;4989679;28;20408;-67
2022/06/16 00:07:35;;;;;;;9.93;7.50;;;18.20;18.10;;;;;;4990342;28;20443;-68
2022/06/16 00:10:02;;;;;;;7.90;7.30;;;18.20;18.10;;;;;;4993422;28;20403;-68
2022/06/16 00:12:28;;;;;;;7.10;6.70;;;18.10;17.90;;;;;;4993193;28;20481;-69
2022/06/16 00:14:53;;;;;;;6.37;6.07;;;18.10;18.30;;;;;;4992087;28;20404;-70
2022/06/16 00:17:19;;;;;;;7.47;6.90;;;17.90;18.60;;;;;;4992982;28;20211;-68
2022/06/16 00:19:44;;;;;;;7.83;7.33;;;17.90;18.90;;;;;;4992894;28;20216;-68
2022/06/16 00:22:10;;;;;;;9.07;8.27;;;17.80;18.70;;;;;;4992873;28;20612;-69
2022/06/16 00:24:35;;;;;;;7.63;6.93;;;17.80;18.80;;;;;;4992581;28;20221;-68
2022/06/16 00:27:01;;;;;;;8.60;8.00;;;17.70;18.70;;;;;;4992803;28;20258;-66
2022/06/16 00:29:27;;;;;;;7.43;6.93;;;17.80;18.80;;;;;;4992712;28;20181;-68
2022/06/16 00:31:53;;;;;;;8.23;7.63;;;17.70;19.00;;;;;;4993083;28;20220;-67
2022/06/16 00:34:18;;;;;;;7.80;7.20;;;17.70;19.10;;;;;;4992793;28;20926;-68
2022/06/16 00:36:44;;;;;;;6.43;6.13;;;17.60;19.30;;;;;;4992509;28;20220;-68
2022/06/16 00:39:09;;;;;;;7.33;6.93;;;17.60;19.30;;;;;;4992356;28;20522;-67
2022/06/16 00:41:35;;;;;;;7.87;7.30;;;17.60;19.30;;;;;;4992501;28;20219;-67
2022/06/16 00:44:09;;;;;;;8.90;8.30;;;17.50;19.30;;;;;;4992572;28;20183;-68
2022/06/16 00:46:35;;;;;;;6.70;6.30;;;17.60;19.30;;;;;;4992606;28;20188;-67
2022/06/16 00:49:06;;;;;;;7.27;6.80;;;17.60;19.30;;;;;;4992319;28;20462;-68
2022/06/16 00:51:36;;;;;;;8.27;7.27;;;17.60;19.60;;;;;;4992495;28;20607;-67
2022/06/16 00:54:22;;;;;;;8.43;7.50;;;17.60;19.60;;;;;;4992454;28;20434;-67
2022/06/16 00:56:50;;;;;;;8.00;7.30;;;17.50;19.40;;;;;;4992392;28;20432;-67
2022/06/16 00:59:15;;;;;;;7.63;6.87;;;17.50;19.20;;;;;;4992340;28;20424;-68
2022/06/16 01:01:43;;;;;;;7.47;6.87;;;17.50;19.20;;;;;;4992224;28;20474;-67
2022/06/16 01:06:59;;;;;;;7.00;6.40;;;17.50;19.20;;;;;;4992448;28;20466;-67
2022/06/16 01:09:30;;;;;;;6.40;5.80;;;17.40;19.70;;;;;;4991918;28;20415;-69
2022/06/16 01:15:14;;;;;;;7.47;6.27;;;17.30;20.10;;;;;;4992228;28;20452;-67
2022/06/16 01:18:15;;;;;;;8.50;7.80;;;17.30;20.00;;;;;;4991878;28;20426;-68
2022/06/16 01:21:07;;;;;;;7.73;7.10;;;17.30;20.00;;;;;;4968796;28;20471;-66
2022/06/16 01:24:14;;;;;;;6.50;6.00;;;17.20;20.50;;;;;;4991941;28;20434;-67
2022/06/16 01:27:10;;;;;;;6.50;5.90;;;17.20;20.60;;;;;;4931794;29;20452;-68
2022/06/16 01:29:58;;;;;;;6.10;5.70;;;17.10;20.70;;;;;;4931485;29;20511;-67
2022/06/16 01:32:45;;;;;;;6.07;5.67;;;17.10;20.60;;;;;;4981035;28;20420;-67
2022/06/16 01:35:22;;;;;;;6.27;5.77;;;17.10;20.50;;;;;;4992094;28;20827;-67
2022/06/16 01:38:06;;;;;;;11.03;5.70;;;16.90;20.80;;;;;;4992104;28;20467;-67
2022/06/16 01:40:49;;;;;;;6.90;6.40;;;16.90;20.90;;;;;;4991740;28;20419;-68
2022/06/16 01:43:34;;;;;;;6.17;5.63;;;16.80;21.10;;;;;;4991976;28;20507;-67
2022/06/16 01:46:17;;;;;;;5.80;5.40;;;16.80;21.20;;;;;;4991951;28;20400;-68
2022/06/16 01:48:46;;;;;;;6.63;6.13;;;16.70;21.20;;;;;;4991437;28;20441;-68
2022/06/16 01:51:24;;;;;;;5.60;5.20;;;16.60;21.50;;;;;;4991389;28;20458;-69
2022/06/16 01:54:00;;;;;;;6.43;5.53;;;16.60;21.30;;;;;;4991451;28;20419;-67
2022/06/16 01:56:31;;;;;;;6.10;5.70;;;16.60;21.50;;;;;;4991408;28;20415;-67
2022/06/16 01:59:05;;;;;;;6.23;5.70;;;16.60;21.80;;;;;;4991091;28;20447;-67
2022/06/16 02:01:38;;;;;;;6.70;6.20;;;16.60;21.90;;;;;;4991309;28;20460;-68
2022/06/16 02:04:09;;;;;;;6.50;6.00;;;16.50;21.60;;;;;;4991374;28;20407;-67
2022/06/16 02:06:39;;;;;;;6.10;5.60;;;16.60;21.60;;;;;;4991045;28;20477;-69
2022/06/16 02:09:17;;;;;;;6.70;6.20;;;16.50;21.80;;;;;;4990921;28;20469;-67
2022/06/16 02:11:44;;;;;;;6.23;5.73;;;16.50;22.10;;;;;;4991193;28;20414;-69
2022/06/16 02:14:28;;;;;;;6.10;5.60;;;16.50;21.90;;;;;;4991100;28;20419;-67
2022/06/16 02:16:54;;;;;;;5.90;5.50;;;16.60;22.00;;;;;;4990962;28;20435;-68
2022/06/16 02:19:22;;;;;;;7.37;5.50;;;16.60;22.20;;;;;;4991415;28;20415;-68
2022/06/16 02:21:50;;;;;;;6.73;5.87;;;16.50;22.20;;;;;;4990962;28;20811;-67
2022/06/16 02:24:20;;;;;;;6.50;5.90;;;16.40;22.20;;;;;;4991029;28;20414;-68
2022/06/16 02:26:47;;;;;;;6.47;5.87;;;16.40;22.00;;;;;;4989897;28;20445;-68
2022/06/16 02:29:35;;;;;;;5.87;5.37;;;16.40;22.20;;;;;;4989957;28;20429;-68
2022/06/16 02:32:32;;;;;;;7.10;6.50;;;16.40;22.20;;;;;;4991052;28;20418;-68
2022/06/16 02:35:10;;;;;;;11.03;5.50;;;16.40;22.40;;;;;;4990854;28;20926;-68
2022/06/16 02:38:06;;;;;;;5.90;5.30;;;16.30;22.50;;;;;;4990579;28;20485;-69
2022/06/16 02:40:50;;;;;;;6.43;5.93;;;16.30;22.70;;;;;;4990723;28;20513;-69
2022/06/16 02:43:15;;;;;;;6.13;5.63;;;16.20;22.60;;;;;;4990703;28;20419;-68
2022/06/16 02:46:02;;;;;;;6.50;5.90;;;16.20;22.60;;;;;;4990797;28;20419;-68
2022/06/16 02:48:28;;;;;;;6.23;5.63;;;16.20;22.60;;;;;;4989009;28;20578;-68
2022/06/16 02:51:25;;;;;;;5.90;5.40;;;16.20;22.60;;;;;;4990532;28;20413;-68
2022/06/16 02:54:13;;;;;;;5.87;5.23;;;16.20;22.60;;;;;;4990673;28;20180;-68
2022/06/16 02:56:44;;;;;;;6.43;5.83;;;16.20;22.60;;;;;;4990375;28;20442;-67
2022/06/16 02:59:15;;;;;;;6.33;5.80;;;16.10;22.70;;;;;;4990374;28;20504;-68
2022/06/16 03:01:41;;;;;;;5.87;5.47;;;16.30;22.80;;;;;;4990487;28;20479;-68
2022/06/16 03:04:14;;;;;;;5.83;5.30;;;16.30;22.70;;;;;;4990536;28;20415;-69
2022/06/16 03:06:41;;;;;;;5.47;5.07;;;16.30;22.70;;;;;;4990462;28;20278;-69
2022/06/16 03:09:07;;;;;;;5.53;5.10;;;16.30;22.70;;;;;;4990040;28;20410;-67
2022/06/16 03:11:34;;;;;;;5.43;5.00;;;16.30;22.70;;;;;;4990293;28;20419;-67
2022/06/16 03:14:00;;;;;;;5.33;4.90;;;16.30;22.70;;;;;;4990394;28;20430;-67
2022/06/16 03:16:26;;;;;;;5.47;5.07;;;16.20;22.70;;;;;;4990485;28;20418;-67
2022/06/16 03:18:51;;;;;;;13.20;6.23;;;16.30;22.70;;;;;;4990492;28;20754;-68
2022/06/16 03:21:17;;;;;;;4.70;4.40;;;16.20;22.60;;;;;;4990185;28;20209;-66
2022/06/16 03:23:43;;;;;;;6.43;5.83;;;16.30;22.70;;;;;;4988748;28;20189;-69
2022/06/16 03:26:08;;;;;;;4.97;4.57;;;16.20;23.10;;;;;;4990016;28;20175;-67
2022/06/16 03:28:34;;;;;;;5.90;5.40;;;16.10;23.10;;;;;;4989995;28;20207;-67
2022/06/16 03:30:59;;;;;;;6.37;5.33;;;16.10;23.30;;;;;;4990116;28;20184;-67
2022/06/16 03:33:25;;;;;;;6.33;5.60;;;16.20;23.00;;;;;;4990029;28;20551;-67
2022/06/16 03:35:51;;;;;;;6.83;6.23;;;16.20;23.00;;;;;;4989962;28;20722;-67
2022/06/16 03:38:38;;;;;;;7.30;5.83;;;16.20;22.80;;;;;;4988807;28;20218;-67
2022/06/16 03:41:03;;;;;;;6.60;6.10;;;16.30;22.70;;;;;;4988881;28;20699;-68
2022/06/16 03:43:29;;;;;;;5.73;5.33;;;16.40;22.70;;;;;;4989713;28;20415;-67
2022/06/16 03:45:54;;;;;;;6.27;5.77;;;16.40;22.70;;;;;;4989766;28;20184;-68
2022/06/16 03:48:20;;;;;;;7.00;6.50;;;16.40;22.70;;;;;;4989460;28;20239;-68
2022/06/16 03:50:46;;;;;;;6.47;5.83;;;16.50;22.80;;;;;;4990087;28;20186;-68
2022/06/16 03:53:12;;;;;;;5.97;5.47;;;16.50;22.80;;;;;;4989849;28;20185;-67
2022/06/16 03:55:37;;;;;;;6.20;5.70;;;16.50;23.00;;;;;;4989853;28;20278;-68
2022/06/16 03:58:03;;;;;;;5.40;5.00;;;16.60;22.90;;;;;;4989899;28;20875;-68
2022/06/16 04:00:29;;;;;;;6.10;5.53;;;16.70;22.90;;;;;;4989689;28;20193;-68
2022/06/16 04:05:40;;;;;;;7.73;6.27;;;17.00;22.20;;;;;;4989628;28;20395;-68
2022/06/16 04:08:07;;;;;;;6.33;5.93;;;17.10;22.10;;;;;;4987963;28;20435;-66
2022/06/16 04:10:33;;;;;;;5.20;4.80;;;17.20;21.90;;;;;;4989549;28;20419;-68
2022/06/16 04:12:58;;;;;;;6.50;5.90;;;17.20;21.70;;;;;;4989426;28;20412;-67
2022/06/16 04:15:24;;;;;;;7.40;6.70;;;17.30;21.60;;;;;;4989407;28;20173;-68
2022/06/16 04:17:50;;;;;;;9.13;7.23;;;17.40;21.00;;;;;;4989275;28;20226;-68
2022/06/16 04:20:15;;;;;;;9.20;8.47;;;17.60;20.70;;;;;;4987781;28;20546;-68
2022/06/16 04:22:42;;;;;;;8.83;7.87;;;17.70;20.10;;;;;;4989240;28;20217;-67
2022/06/16 04:25:15;;;;;;;6.90;6.40;;;17.80;20.20;;;;;;4989227;28;20179;-69
2022/06/16 04:27:44;;;;;;;7.30;6.80;;;17.80;20.50;;;;;;4989167;28;20446;-67
2022/06/16 04:30:10;;;;;;;6.73;6.30;;;17.90;20.40;;;;;;4988910;28;20802;-69
2022/06/16 04:32:36;;;;;;;7.57;7.07;;;18.00;19.90;;;;;;4989196;28;20511;-68
2022/06/16 04:35:02;;;;;;;8.07;7.40;;;18.00;20.30;;;;;;4989102;28;20651;-68
2022/06/16 04:37:28;;;;;;;7.93;7.27;;;18.30;19.80;;;;;;4989034;28;20216;-69
2022/06/16 04:39:53;;;;;;;8.13;7.43;;;18.50;19.90;;;;;;4988785;28;20510;-67
2022/06/16 04:42:19;;;;;;;8.70;8.03;;;18.70;19.40;;;;;;4989395;28;20557;-68
2022/06/16 04:44:45;;;;;;;9.47;8.77;;;18.90;19.10;;;;;;4989069;28;20188;-68
2022/06/16 04:47:11;;;;;;;9.47;8.93;;;19.10;18.40;;;;;;4988953;28;20428;-68
2022/06/16 04:49:40;;;;;;;8.40;7.93;;;19.30;18.10;;;;;;4988799;28;20419;-67
2022/06/16 04:52:06;;;;;;;9.73;9.13;;;19.40;17.40;;;;;;4988940;28;20472;-68
2022/06/16 04:54:32;;;;;;;9.20;8.70;;;19.50;17.50;;;;;;4992128;28;20416;-68
2022/06/16 04:56:58;;;;;;;10.07;9.33;;;19.90;16.90;;;;;;4991045;28;20450;-68
2022/06/16 04:59:23;;;;;;;9.83;9.13;;;20.10;16.60;;;;;;4991939;28;20415;-69
2022/06/16 05:01:49;;;;;;;9.50;8.90;;;20.30;16.80;;;;;;4992037;28;20295;-69
2022/06/16 05:04:15;;;;;;;10.10;9.60;;;20.50;16.90;;;;;;4992079;28;20180;-69
2022/06/16 05:06:40;;;;;;;11.27;10.57;;;20.50;15.80;;;;;;4992106;28;20197;-68
2022/06/16 05:09:06;;;;;;;10.70;10.00;;;20.60;16.10;;;;;;4991749;28;20648;-68
2022/06/16 05:11:31;;;;;;;10.97;10.37;;;20.70;16.10;;;;;;4992093;28;20211;-68
2022/06/16 05:14:00;;;;;;;10.80;10.10;;;20.90;15.90;;;;;;4992043;28;20210;-69
2022/06/16 05:16:26;;;;;;;11.60;11.10;;;21.60;15.60;;;;;;4991817;28;20177;-69
2022/06/16 05:18:54;;;;;;;12.37;11.77;;;23.00;14.10;;;;;;4991635;28;20416;-69
2022/06/16 05:21:19;;;;;;;11.70;11.10;;;24.00;11.20;;;;;;4991736;28;20455;-70
2022/06/16 05:23:45;;;;;;;14.07;13.20;;;24.50;10.60;;;;;;4991835;28;20483;-70
2022/06/16 05:26:12;;;;;;;13.53;12.83;;;25.10;9.80;;;;;;4991802;28;20630;-69
2022/06/16 05:28:38;;;;;;;12.33;11.83;;;25.40;8.70;;;;;;4991452;28;20412;-69
2022/06/16 05:31:04;;;;;;;13.77;12.97;;;25.30;8.70;;;;;;4991675;28;20520;-70
2022/06/16 05:33:29;;;;;;;12.93;12.10;;;25.10;8.70;;;;;;4991909;28;20419;-69
2022/06/16 05:36:07;;;;;;;12.43;11.93;;;24.80;8.70;;;;;;4992014;28;20656;-70
2022/06/16 05:38:34;;;;;;;12.83;12.20;;;24.50;9.20;;;;;;4991245;28;20216;-69
2022/06/16 05:41:03;;;;;;;14.03;13.40;;;24.40;9.90;;;;;;4990177;28;20491;-68
2022/06/16 05:43:29;;;;;;;13.57;12.87;;;24.60;10.10;;;;;;4991767;28;20416;-68
2022/06/16 05:45:55;;;;;;;13.33;12.40;;;25.50;9.70;;;;;;4990399;28;20438;-68
2022/06/16 05:48:21;;;;;;;12.97;12.43;;;26.00;8.50;;;;;;4993112;28;20439;-69
2022/06/16 05:50:47;;;;;;;13.97;13.37;;;26.30;7.60;;;;;;4990731;28;20204;-68
2022/06/16 05:53:13;;;;;;;14.07;13.37;;;26.40;7.70;;;;;;4991395;28;20501;-68
2022/06/16 05:55:38;;;;;;;13.90;13.30;;;26.60;7.20;;;;;;4991395;28;20173;-67
2022/06/16 05:58:04;;;;;;;15.57;14.37;;;26.70;6.30;;;;;;4990976;28;20211;-69
2022/06/16 06:00:30;;;;;;;14.73;13.77;;;26.60;5.90;;;;;;4991337;28;20177;-68
2022/06/16 06:02:58;;;;;;;15.27;14.17;;;26.50;6.30;;;;;;4991291;28;20189;-69
2022/06/16 06:05:26;;;;;;;15.40;14.50;;;26.70;6.10;;;;;;4990327;28;20407;-69
2022/06/16 06:18:49;;;;;;;15.37;14.57;;;28.70;3.60;;;;;;4990749;28;20485;-68
2022/06/16 06:21:14;;;;;;;14.57;13.80;;;28.20;3.30;;;;;;4990929;28;20523;-69
2022/06/16 06:23:40;;;;;;;14.10;13.40;;;28.00;4.00;;;;;;4991212;28;20576;-69
2022/06/16 06:26:05;;;;;;;14.13;13.53;;;28.00;4.30;;;;;;4991118;28;20265;-70
2022/06/16 06:28:31;;;;;;;14.37;13.57;;;27.90;4.90;;;;;;4990668;28;20679;-69
2022/06/16 06:30:56;;;;;;;14.27;13.67;;;28.80;4.70;;;;;;4991047;28;20674;-70
2022/06/16 06:33:22;;;;;;;15.90;15.20;;;30.40;3.50;;;;;;4991466;28;20177;-69
2022/06/16 06:35:48;;;;;;;16.73;15.83;;;30.30;1.00;;;;;;4989781;28;20191;-70
2022/06/16 06:38:14;;;;;;;14.73;14.13;;;31.90;1.00;;;;;;4990482;28;20246;-70
2022/06/16 06:40:40;;;;;;;15.00;14.30;;;32.80;1.00;;;;;;4990971;28;20192;-70
2022/06/16 06:43:06;;;;;;;15.97;15.23;;;31.70;1.00;;;;;;4991082;28;20432;-70
2022/06/16 06:45:32;;;;;;;15.33;14.53;;;32.10;1.00;;;;;;4990757;28;20447;-69
2022/06/16 06:47:58;;;;;;;15.47;14.67;;;31.30;1.00;;;;;;4990501;28;20196;-70
2022/06/16 06:50:27;;;;;;;16.57;15.80;;;31.20;1.00;;;;;;4990852;28;20795;-69
2022/06/16 06:52:53;;;;;;;16.20;15.40;;;32.80;1.00;;;;;;4991211;28;20205;-70
2022/06/16 06:55:20;;;;;;;15.30;14.50;;;33.40;1.00;;;;;;4990580;28;20471;-71
2022/06/16 06:57:46;;;;;;;16.07;15.27;;;33.20;1.00;;;;;;4993189;28;20444;-70
2022/06/16 07:00:15;;;;;;;15.30;14.70;;;31.50;1.00;;;;;;4999965;28;20420;-70
2022/06/16 07:02:41;;;;;;;15.37;14.77;;;30.50;1.00;;;;;;5000011;28;20463;-70
2022/06/16 07:05:07;;;;;;;15.83;15.03;;;30.80;1.00;;;;;;5001920;28;20408;-70
2022/06/16 07:07:34;;;;;;;16.00;15.30;;;31.30;1.00;;;;;;5002703;28;20181;-69
2022/06/16 07:10:00;;;;;;;17.03;16.23;;;31.60;1.00;;;;;;5001229;28;20434;-69
2022/06/16 07:12:25;;;;;;;15.17;14.47;;;31.70;1.00;;;;;;5006609;28;20440;-68
2022/06/16 07:14:51;;;;;;;15.30;14.50;;;31.10;1.00;;;;;;4991534;28;20188;-68
2022/06/16 07:17:20;;;;;;;15.30;14.60;;;31.10;1.00;;;;;;4990133;28;20196;-68
2022/06/16 07:19:45;;;;;;;14.70;14.10;;;30.80;1.00;;;;;;4990301;28;20181;-69
2022/06/16 07:22:11;;;;;;;15.70;14.80;;;28.30;3.40;;;;;;4990310;28;20531;-69
2022/06/16 07:24:36;;;;;;;14.70;14.10;;;28.30;3.50;;;;;;4990085;28;20177;-70
2022/06/16 07:27:03;;;;;;;15.47;14.43;;;28.30;4.10;;;;;;4990347;28;20671;-69
2022/06/16 07:29:29;;;;;;;14.30;13.70;;;27.40;5.00;;;;;;4988823;28;20563;-69
2022/06/16 07:31:54;;;;;;;15.00;14.30;;;27.50;7.10;;;;;;4990109;28;20426;-69
2022/06/16 07:34:20;;;;;;;15.47;14.60;;;29.10;4.90;;;;;;4990279;28;20986;-69
2022/06/16 07:36:45;;;;;;;14.13;13.43;;;29.80;3.10;;;;;;4989836;28;20224;-69
2022/06/16 07:39:11;;;;;;;16.00;14.90;;;30.30;2.30;;;;;;4989799;28;20185;-69
2022/06/16 07:41:39;;;;;;;15.43;14.73;;;28.40;3.50;;;;;;4989790;28;20205;-70
2022/06/16 07:44:09;;;;;;;15.20;14.17;;;27.10;5.40;;;;;;4989795;28;20177;-68
2022/06/16 07:46:35;;;;;;;14.30;13.70;;;27.50;5.70;;;;;;4989807;28;20436;-69
2022/06/16 07:49:03;;;;;;;14.40;13.50;;;27.80;5.50;;;;;;4989690;28;20782;-69
2022/06/16 07:51:28;;;;;;;14.97;14.17;;;28.10;5.20;;;;;;4989859;28;20420;-69
2022/06/16 07:53:54;;;;;;;14.10;13.50;;;28.10;5.00;;;;;;4989842;28;20461;-69
2022/06/16 07:56:20;;;;;;;14.90;14.00;;;28.10;5.10;;;;;;4989685;28;20181;-68
2022/06/16 07:58:46;;;;;;;14.73;13.87;;;28.20;5.20;;;;;;4989450;28;20184;-69
2022/06/16 08:01:11;;;;;;;15.60;14.80;;;28.50;4.90;;;;;;4989756;28;20247;-69
2022/06/16 08:03:37;;;;;;;13.40;12.80;;;28.80;4.40;;;;;;4989757;28;20636;-70
2022/06/16 08:06:08;;;;;;;15.00;14.30;;;29.10;4.20;;;;;;4989906;28;20183;-69
2022/06/16 08:08:34;;;;;;;14.67;13.77;;;29.60;4.10;;;;;;4989291;28;20197;-69
2022/06/16 08:11:00;;;;;;;14.87;14.27;;;29.60;4.10;;;;;;4989538;28;20938;-69
2022/06/16 08:13:27;;;;;;;15.97;15.10;;;30.50;3.00;;;;;;4989698;28;20420;-70
2022/06/16 08:15:53;;;;;;;16.17;15.27;;;31.10;1.80;;;;;;4990173;28;20724;-68
2022/06/16 08:18:23;;;;;;;14.70;14.10;;;31.20;1.80;;;;;;4989457;28;20447;-69
2022/06/16 08:20:50;;;;;;;15.40;14.70;;;29.60;3.00;;;;;;4989582;28;20423;-68
2022/06/16 08:23:16;;;;;;;14.90;14.20;;;29.10;3.80;;;;;;4989458;28;20415;-69
2022/06/16 08:25:43;;;;;;;14.73;14.03;;;29.40;4.00;;;;;;4989383;28;20473;-68
2022/06/16 08:28:12;;;;;;;16.07;15.07;;;29.90;4.20;;;;;;4990583;28;20466;-68
2022/06/16 08:30:41;;;;;;;14.57;13.97;;;30.70;2.60;;;;;;4992855;28;20424;-67
2022/06/16 08:33:14;;;;;;;16.23;15.23;;;31.70;1.20;;;;;;4992733;28;20412;-69
2022/06/16 08:35:42;;;;;;;15.73;14.93;;;32.30;1.00;;;;;;4993416;28;20408;-69
2022/06/16 08:38:08;;;;;;;15.27;14.67;;;33.10;1.00;;;;;;4992947;28;20569;-70
2022/06/16 08:40:37;;;;;;;15.73;15.03;;;34.10;1.00;;;;;;4991819;28;20752;-68
2022/06/16 08:43:10;;;;;;;15.90;15.10;;;34.80;1.00;;;;;;4993238;28;20435;-69
2022/06/16 08:45:45;;;;;;;15.50;14.90;;;35.00;1.00;;;;;;4992968;28;20412;-70
2022/06/16 08:48:37;;;;;;;16.20;15.30;;;35.50;1.00;;;;;;4992716;28;20463;-68
2022/06/16 08:51:28;;;;;;;15.10;14.40;;;32.90;1.00;;;;;;4992637;28;20420;-69
2022/06/16 08:54:21;;;;;;;15.50;14.90;;;32.80;1.00;;;;;;4992742;28;20416;-68
2022/06/16 08:57:13;;;;;;;15.60;14.90;;;33.20;1.00;;;;;;4993002;28;20439;-72
2022/06/16 08:59:53;;;;;;;15.87;15.07;;;32.40;1.00;;;;;;4992184;28;20906;-70
2022/06/16 09:02:19;;;;;;;16.10;15.20;;;31.70;1.00;;;;;;4991078;28;20470;-69
2022/06/16 09:04:56;;;;;;;15.53;14.80;;;31.20;1.00;;;;;;4992292;28;20412;-69
2022/06/16 09:07:31;;;;;;;15.43;14.73;;;31.20;1.00;;;;;;4991343;28;20788;-69
2022/06/16 09:10:27;;;;;;;15.47;14.77;;;30.00;1.00;;;;;;4992399;28;20995;-70
2022/06/16 09:13:15;;;;;;;16.30;15.60;;;29.50;1.00;;;;;;4991588;28;20847;-69
2022/06/16 09:15:58;;;;;;;14.83;14.13;;;28.40;1.00;;;;;;4992569;28;20412;-71
2022/06/16 09:18:30;;;;;;;15.37;14.40;;;28.70;1.00;;;;;;4991416;28;20970;-69
2022/06/16 09:21:18;;;;;;;14.37;13.67;;;29.20;1.00;;;;;;4991254;28;20424;-69
2022/06/16 09:24:17;;;;;;;15.83;15.13;;;28.70;1.00;;;;;;4992551;28;20408;-69
2022/06/16 09:27:04;;;;;;;14.47;13.80;;;28.40;1.20;;;;;;4984207;28;20989;-71
2022/06/16 09:29:58;;;;;;;15.70;14.50;;;28.20;1.70;;;;;;4991744;28;20416;-68
2022/06/16 09:32:36;;;;;;;15.67;15.00;;;28.30;1.40;;;;;;4992046;28;20412;-69
2022/06/16 09:35:25;;;;;;;15.63;14.93;;;28.60;1.60;;;;;;4993044;28;20457;-69
2022/06/16 09:38:08;;;;;;;15.37;14.77;;;28.30;1.40;;;;;;5023639;22;20501;-66
2022/06/16 09:40:45;;;;;;;15.10;14.40;;;28.70;1.80;;;;;;5011421;28;20442;-67
2022/06/16 09:43:21;;;;;;;15.43;14.70;;;28.20;2.80;;;;;;5011328;28;20494;-66
2022/06/16 09:46:08;;;;;;;15.10;14.30;;;27.50;3.50;;;;;;5011317;28;20407;-66
2022/06/16 09:48:43;;;;;;;15.53;14.50;;;27.30;4.70;;;;;;5010873;28;20423;-66
2022/06/16 09:51:24;;;;;;;14.80;14.20;;;27.50;4.30;;;;;;5011292;28;20942;-66
2022/06/16 09:53:59;;;;;;;14.80;14.00;;;27.10;4.50;;;;;;5011255;28;20411;-67
2022/06/16 09:56:40;;;;;;;15.27;14.37;;;27.30;3.60;;;;;;5010780;28;20422;-67
2022/06/16 09:59:13;;;;;;;15.73;14.73;;;27.50;3.90;;;;;;5011787;28;20804;-66
2022/06/16 10:01:44;;;;;;;15.07;14.17;;;27.60;4.00;;;;;;5011760;28;20542;-67
2022/06/16 10:04:10;;;;;;;14.80;14.13;;;27.50;3.70;;;;;;5012388;28;20415;-67
2022/06/16 10:07:05;;;;;;;15.23;14.00;;;27.80;2.80;;;;;;5011628;28;20423;-67
2022/06/16 10:09:42;;;;;;;14.63;13.70;;;27.50;1.70;;;;;;5011516;28;20180;-67
2022/06/16 10:12:30;;;;;;;14.37;13.77;;;27.00;1.00;;;;;;5011583;28;20481;-67
2022/06/16 10:15:05;;;;;;;14.50;13.80;;;27.20;1.30;;;;;;5011173;28;20407;-67
2022/06/16 10:17:33;;;;;;;14.53;13.83;;;27.10;1.30;;;;;;5011194;28;20431;-67
2022/06/16 10:19:59;;;;;;;15.63;14.83;;;26.90;1.30;;;;;;5010836;28;20410;-67
2022/06/16 10:22:28;;;;;;;14.33;13.73;;;26.80;1.50;;;;;;5010740;28;20466;-67
2022/06/16 10:25:23;;;;;;;14.80;13.93;;;27.00;2.70;;;;;;5010922;28;20423;-67
2022/06/16 10:28:03;;;;;;;15.00;14.00;;;27.30;1.20;;;;;;5011069;28;20445;-67
2022/06/16 10:30:33;;;;;;;14.60;13.90;;;27.40;1.10;;;;;;5010937;28;20448;-67
2022/06/16 10:33:22;;;;;;;14.77;13.80;;;27.60;1.10;;;;;;5010775;28;20850;-67
2022/06/16 10:36:03;;;;;;;14.47;13.70;;;27.50;1.40;;;;;;5010858;28;20415;-67
2022/06/16 10:38:41;;;;;;;13.60;13.10;;;27.80;1.80;;;;;;5010559;28;20458;-67
2022/06/16 10:41:33;;;;;;;14.70;14.00;;;28.00;1.30;;;;;;5010719;28;20454;-67
2022/06/16 10:44:01;;;;;;;13.57;12.97;;;28.20;1.10;;;;;;5010985;28;20414;-68
2022/06/16 10:46:33;;;;;;;15.23;14.53;;;28.30;1.00;;;;;;5011931;28;20529;-67
2022/06/16 10:49:04;;;;;;;15.33;14.37;;;27.80;1.00;;;;;;5011799;28;20442;-67
2022/06/16 10:51:32;;;;;;;14.30;13.67;;;27.80;1.00;;;;;;5009543;28;20636;-68
2022/06/16 10:54:19;;;;;;;14.90;14.30;;;27.80;1.00;;;;;;5011369;28;20419;-68
2022/06/16 10:56:45;;;;;;;14.80;14.10;;;28.00;1.00;;;;;;5011227;28;20418;-69
2022/06/16 10:59:26;;;;;;;14.90;14.20;;;28.00;1.00;;;;;;5010762;28;20423;-68
2022/06/16 11:02:13;;;;;;;13.77;13.10;;;28.10;1.00;;;;;;5010627;28;20458;-68
2022/06/16 11:04:40;;;;;;;14.60;14.00;;;28.00;1.00;;;;;;5010669;28;20430;-67
2022/06/16 11:07:11;;;;;;;15.10;14.40;;;27.60;1.00;;;;;;5010857;28;20483;-68
2022/06/16 11:09:37;;;;;;;14.37;13.77;;;27.70;1.00;;;;;;5009657;28;20492;-68
2022/06/16 11:12:14;;;;;;;13.77;13.17;;;27.20;1.00;;;;;;5010880;28;20914;-69
2022/06/16 11:14:52;;;;;;;14.80;14.10;;;27.50;1.00;;;;;;5010929;28;20224;-69
2022/06/16 11:17:25;;;;;;;13.93;13.33;;;27.60;1.00;;;;;;5009550;28;20450;-68
2022/06/16 11:19:58;;;;;;;15.20;13.93;;;27.60;1.00;;;;;;5010786;28;20472;-68
2022/06/16 11:22:35;;;;;;;13.97;13.37;;;27.90;1.00;;;;;;5011289;28;20462;-69
2022/06/16 11:25:05;;;;;;;15.30;14.20;;;28.20;1.00;;;;;;5011060;28;20421;-68
2022/06/16 11:27:41;;;;;;;15.23;14.53;;;28.20;1.00;;;;;;5011441;28;20439;-68
2022/06/16 11:30:27;;;;;;;15.63;14.93;;;28.20;1.00;;;;;;5010251;28;20469;-68
2022/06/16 11:32:52;;;;;;;14.40;13.60;;;27.90;1.00;;;;;;5011566;28;20421;-67
2022/06/16 11:35:23;;;;;;;14.27;13.67;;;28.10;1.00;;;;;;5011484;28;20826;-70
2022/06/16 11:38:14;;;;;;;14.03;13.40;;;27.90;1.00;;;;;;5011158;28;20216;-68
2022/06/16 11:40:55;;;;;;;15.23;14.40;;;27.90;1.00;;;;;;5011431;28;20422;-69
2022/06/16 11:43:42;;;;;;;13.87;13.17;;;28.20;1.00;;;;;;5011879;28;20426;-68
2022/06/16 11:46:21;;;;;;;14.27;13.40;;;28.30;1.00;;;;;;5010690;28;20411;-67
2022/06/16 11:49:11;;;;;;;14.57;13.87;;;28.30;1.00;;;;;;5009107;28;20944;-68
2022/06/16 11:51:58;;;;;;;13.00;12.50;;;28.50;1.00;;;;;;5009375;28;20415;-68
2022/06/16 11:54:57;;;;;;;14.73;13.90;;;28.90;1.00;;;;;;5009285;28;20449;-68
2022/06/16 11:57:41;;;;;;;14.33;13.73;;;28.50;1.00;;;;;;5009283;28;20427;-68
2022/06/16 12:00:25;;;;;;;14.50;13.80;;;28.60;1.00;;;;;;5009634;28;20482;-68
2022/06/16 12:03:12;;;;;;;14.73;14.03;;;28.90;1.00;;;;;;5010277;28;20509;-67
2022/06/16 12:06:14;;;;;;;14.90;14.10;;;28.90;1.00;;;;;;5011432;28;20427;-68
2022/06/16 12:09:06;;;;;;;15.20;14.40;;;29.00;1.00;;;;;;5012271;28;20434;-67
2022/06/16 12:11:58;;;;;;;13.80;13.20;;;28.90;1.00;;;;;;5012683;28;20555;-67
2022/06/16 12:14:50;;;;;;;15.27;14.57;;;29.00;1.00;;;;;;5012467;28;20491;-67
2022/06/16 12:17:43;;;;;;;15.40;14.63;;;28.90;1.00;;;;;;5012445;28;20777;-67
2022/06/16 12:20:38;;;;;;;15.33;14.63;;;28.60;1.00;;;;;;5012414;28;20922;-68
2022/06/16 12:23:14;;;;;;;14.60;13.70;;;28.20;1.00;;;;;;5012073;28;20569;-67
2022/06/16 12:25:45;;;;;;;14.80;14.10;;;28.30;1.00;;;;;;5012723;28;20457;-69
2022/06/16 12:28:30;;;;;;;15.90;15.13;;;28.30;1.00;;;;;;5012436;28;20542;-67
2022/06/16 12:31:06;;;;;;;14.67;14.07;;;28.20;1.00;;;;;;5012935;28;20436;-69
2022/06/16 12:33:39;;;;;;;15.43;14.73;;;28.50;1.00;;;;;;5012582;28;20498;-67
2022/06/16 12:36:15;;;;;;;15.30;14.60;;;28.70;1.00;;;;;;5012507;28;20782;-67
2022/06/16 12:39:15;;;;;;;15.03;14.23;;;28.40;1.00;;;;;;5012250;28;20462;-68
2022/06/16 12:41:45;;;;;;;15.10;14.40;;;28.30;1.00;;;;;;5012808;28;20472;-67
2022/06/16 12:44:35;;;;;;;14.30;13.70;;;28.60;1.00;;;;;;5013071;28;20415;-67
2022/06/16 12:47:21;;;;;;;14.30;13.70;;;28.50;1.00;;;;;;5012810;28;20446;-68
2022/06/16 12:50:08;;;;;;;14.40;13.80;;;28.50;1.00;;;;;;5012252;28;20423;-67
2022/06/16 12:52:58;;;;;;;14.43;13.73;;;28.80;1.00;;;;;;5012448;28;20828;-67
2022/06/16 12:55:39;;;;;;;14.60;13.90;;;28.40;1.00;;;;;;5011924;28;20430;-67
2022/06/16 12:58:19;;;;;;;15.03;14.00;;;28.40;1.00;;;;;;5011702;28;20438;-68
2022/06/16 13:00:51;;;;;;;14.53;13.83;;;28.20;1.00;;;;;;5011661;28;20763;-68
2022/06/16 13:03:36;;;;;;;14.63;13.87;;;28.30;1.00;;;;;;5010717;28;20518;-68
2022/06/16 13:06:03;;;;;;;15.13;14.43;;;28.50;1.00;;;;;;5011748;28;20394;-67
2022/06/16 13:08:34;;;;;;;15.10;14.50;;;28.20;1.00;;;;;;5011524;28;20830;-67
2022/06/16 13:11:06;;;;;;;14.43;13.83;;;28.20;1.00;;;;;;5012142;28;20407;-67
2022/06/16 13:13:52;;;;;;;14.50;13.80;;;28.20;1.00;;;;;;5011154;28;20404;-67
2022/06/16 13:16:23;;;;;;;14.30;13.60;;;28.10;1.00;;;;;;5011568;28;20409;-67
2022/06/16 13:18:56;;;;;;;14.50;13.87;;;27.90;1.00;;;;;;5011411;28;20498;-67
2022/06/16 13:21:28;;;;;;;14.97;14.37;;;28.00;1.00;;;;;;5011554;28;20490;-67
2022/06/16 13:24:09;;;;;;;13.70;13.20;;;28.00;1.00;;;;;;5011390;28;20400;-67
2022/06/16 13:26:40;;;;;;;15.03;14.07;;;28.00;1.00;;;;;;5011161;28;20411;-68
2022/06/16 13:29:06;;;;;;;14.30;13.70;;;27.90;1.00;;;;;;5011136;28;20413;-68